Time;durP1;ratioP1;P1;durP2;ratioP2;P2;SDS_P1;SDS_P2;PMS_P1;PMS_P2;Temp;Humidity;BMP_temperature;BMP_pressure;BME280_temperature;BME280_humidity;BME280_pressure;Samples;Min_cycle;Max_cycle;Signal;HPM_P1;HPM_P2
2020/12/02 00:01:57;;;;;;;21.30;9.18;;;-0.10;99.90;;;;;;5004686;28;20358;-78
2020/12/02 00:04:25;;;;;;;22.73;10.07;;;-0.10;99.90;;;;;;5024067;28;20037;-78
2020/12/02 00:06:52;;;;;;;22.65;9.57;;;-0.10;99.90;;;;;;5020751;28;20104;-78
2020/12/02 00:09:20;;;;;;;19.63;9.38;;;-0.10;99.90;;;;;;5016204;28;20022;-78
2020/12/02 00:11:48;;;;;;;20.55;9.05;;;-0.20;99.90;;;;;;5016015;28;20029;-78
2020/12/02 00:14:26;;;;;;;20.10;9.43;;;-0.20;99.90;;;;;;5012056;28;20076;-78
2020/12/02 00:16:52;;;;;;;19.25;9.48;;;-0.20;99.90;;;;;;5012159;28;20032;-78
2020/12/02 00:19:19;;;;;;;22.17;9.88;;;-0.30;99.90;;;;;;5012221;28;20038;-78
2020/12/02 00:22:07;;;;;;;20.40;9.30;;;-0.30;99.90;;;;;;5013826;28;20038;-78
2020/12/02 00:24:34;;;;;;;21.63;9.98;;;-0.30;99.90;;;;;;5022358;28;20383;-77
2020/12/02 00:27:25;;;;;;;18.70;8.55;;;-0.30;99.90;;;;;;5001843;28;20401;-78
2020/12/02 00:29:51;;;;;;;22.25;10.07;;;-0.30;99.90;;;;;;5000120;28;20077;-78
2020/12/02 00:32:37;;;;;;;22.88;9.75;;;-0.30;99.90;;;;;;5014451;28;20040;-78
2020/12/02 00:35:07;;;;;;;23.20;9.75;;;-0.30;99.90;;;;;;5006541;28;20153;-78
2020/12/02 00:37:33;;;;;;;19.75;9.88;;;-0.30;99.90;;;;;;5014829;28;20188;-78
2020/12/02 00:39:59;;;;;;;23.27;10.23;;;-0.30;99.90;;;;;;5015956;28;20041;-78
2020/12/02 00:42:24;;;;;;;18.77;9.23;;;-0.30;99.90;;;;;;5014439;28;20028;-78
2020/12/02 00:44:51;;;;;;;21.95;9.23;;;-0.40;99.90;;;;;;4997782;28;20492;-78
2020/12/02 00:47:22;;;;;;;22.23;10.38;;;-0.30;99.90;;;;;;5015969;28;20111;-78
2020/12/02 00:49:50;;;;;;;23.88;9.95;;;-0.40;99.90;;;;;;5015748;28;20057;-77
2020/12/02 00:52:16;;;;;;;22.73;11.70;;;-0.30;99.90;;;;;;5014918;28;20037;-78
2020/12/02 00:54:43;;;;;;;19.92;9.30;;;-0.30;99.90;;;;;;5015461;28;20033;-77
2020/12/02 00:57:31;;;;;;;24.98;10.57;;;-0.40;99.90;;;;;;4998171;28;20038;-78
2020/12/02 00:59:59;;;;;;;22.25;9.85;;;-0.40;99.90;;;;;;5023737;28;20117;-78
2020/12/02 01:02:36;;;;;;;20.70;10.15;;;-0.40;99.90;;;;;;5018650;28;20041;-78
2020/12/02 01:05:11;;;;;;;22.17;10.75;;;-0.40;99.90;;;;;;5015571;28;20384;-78
2020/12/02 01:07:39;;;;;;;;;;;-0.40;99.90;;;;;;5014606;28;20125;-78
2020/12/02 01:10:05;;;;;;;22.00;9.55;;;-0.40;99.90;;;;;;5015216;28;20378;-78
2020/12/02 01:12:31;;;;;;;24.45;10.57;;;-0.30;99.90;;;;;;5011141;28;20030;-78
2020/12/02 01:14:56;;;;;;;22.08;10.60;;;-0.30;99.90;;;;;;5013037;28;20428;-78
2020/12/02 01:17:22;;;;;;;18.67;9.18;;;-0.30;99.90;;;;;;5005867;28;20034;-78
2020/12/02 01:19:48;;;;;;;25.15;10.27;;;-0.30;99.90;;;;;;5015069;28;20037;-78
2020/12/02 01:22:21;;;;;;;21.63;10.10;;;-0.30;99.90;;;;;;5014180;28;20073;-78
2020/12/02 01:25:19;;;;;;;23.48;10.75;;;-0.30;99.90;;;;;;5031891;28;20503;-78
2020/12/02 01:28:05;;;;;;;21.00;10.73;;;-0.20;99.90;;;;;;4995735;28;20065;-78
2020/12/02 01:30:32;;;;;;;21.13;9.60;;;-0.20;99.90;;;;;;4988567;28;20038;-78
2020/12/02 01:32:59;;;;;;;19.95;9.95;;;-0.20;99.90;;;;;;5011747;28;20037;-78
2020/12/02 01:35:28;;;;;;;21.27;9.73;;;-0.20;99.90;;;;;;5013393;28;20064;-77
2020/12/02 01:38:04;;;;;;;22.50;10.95;;;-0.10;99.90;;;;;;5014972;28;20484;-78
2020/12/02 01:40:35;;;;;;;20.67;10.38;;;-0.10;99.90;;;;;;5014581;28;20472;-78
2020/12/02 01:43:03;;;;;;;21.63;9.70;;;-0.10;99.90;;;;;;5012218;28;20026;-78
2020/12/02 01:45:43;;;;;;;23.30;10.80;;;-0.10;99.90;;;;;;5014592;28;20040;-78
2020/12/02 01:48:30;;;;;;;23.17;10.45;;;0.00;99.90;;;;;;4997134;28;20025;-78
2020/12/02 01:51:30;;;;;;;23.30;11.85;;;0.00;99.90;;;;;;5012755;28;20038;-77
2020/12/02 01:54:37;;;;;;;20.73;11.15;;;0.00;99.90;;;;;;5012358;28;20026;-78
2020/12/02 01:57:35;;;;;;;26.08;11.80;;;0.00;99.90;;;;;;5012420;28;20065;-78
2020/12/02 02:00:16;;;;;;;25.33;12.18;;;0.10;99.90;;;;;;5004682;28;20053;-78
2020/12/02 02:02:54;;;;;;;23.45;11.18;;;0.10;99.90;;;;;;4996923;28;20404;-78
2020/12/02 02:05:28;;;;;;;25.70;11.38;;;0.00;99.90;;;;;;5010293;28;20061;-78
2020/12/02 02:07:55;;;;;;;23.80;10.88;;;0.00;99.90;;;;;;5011208;28;20029;-78
2020/12/02 02:10:35;;;;;;;22.27;10.00;;;0.00;99.90;;;;;;5012394;28;20072;-78
2020/12/02 02:13:10;;;;;;;20.02;9.77;;;0.00;99.90;;;;;;5009419;28;20030;-78
2020/12/02 02:16:10;;;;;;;19.80;9.45;;;0.00;99.90;;;;;;5008299;28;20030;-78
2020/12/02 02:18:36;;;;;;;18.25;8.45;;;0.00;99.90;;;;;;5012738;28;20121;-78
2020/12/02 02:21:16;;;;;;;20.85;9.20;;;0.10;99.90;;;;;;5012892;28;20134;-78
2020/12/02 02:23:43;;;;;;;21.40;9.10;;;0.10;99.90;;;;;;5012511;28;20030;-78
2020/12/02 02:26:14;;;;;;;17.70;9.35;;;0.10;99.90;;;;;;5011343;28;20033;-78
2020/12/02 02:29:18;;;;;;;18.50;8.88;;;0.10;99.90;;;;;;5014110;28;20026;-78
2020/12/02 02:32:07;;;;;;;22.77;10.48;;;0.10;99.90;;;;;;4990074;28;20046;-78
2020/12/02 02:34:37;;;;;;;19.75;9.25;;;0.10;99.90;;;;;;5014865;28;20384;-78
2020/12/02 02:37:04;;;;;;;22.88;9.80;;;0.10;99.90;;;;;;5013501;28;20048;-78
2020/12/02 02:39:30;;;;;;;22.42;9.40;;;0.10;99.90;;;;;;5011862;28;20033;-78
2020/12/02 02:42:04;;;;;;;19.27;8.55;;;0.10;99.90;;;;;;5010520;28;20487;-78
2020/12/02 02:44:30;;;;;;;19.08;9.48;;;0.10;99.90;;;;;;5024646;28;20565;-78
2020/12/02 02:46:56;;;;;;;19.45;8.73;;;0.10;99.90;;;;;;5016593;28;20030;-78
2020/12/02 02:49:22;;;;;;;20.38;9.48;;;0.10;99.90;;;;;;5013220;28;20116;-78
2020/12/02 02:51:49;;;;;;;19.00;9.88;;;0.10;99.90;;;;;;5012031;28;20080;-78
2020/12/02 02:54:15;;;;;;;20.95;9.65;;;0.20;99.90;;;;;;5010613;28;20044;-78
2020/12/02 02:56:41;;;;;;;22.48;10.32;;;0.10;99.90;;;;;;5008233;28;20034;-78
2020/12/02 02:59:08;;;;;;;21.48;9.80;;;0.20;99.90;;;;;;5013402;28;20034;-78
2020/12/02 03:01:38;;;;;;;24.77;10.80;;;0.20;99.90;;;;;;5011592;28;20044;-78
2020/12/02 03:04:04;;;;;;;21.88;10.18;;;0.20;99.90;;;;;;5011971;28;20034;-78
2020/12/02 03:06:30;;;;;;;20.20;10.35;;;0.20;99.90;;;;;;4983120;28;20077;-78
2020/12/02 03:08:56;;;;;;;23.38;11.00;;;0.20;99.90;;;;;;4993816;28;20460;-78
2020/12/02 03:11:21;;;;;;;20.20;9.90;;;0.20;99.90;;;;;;5002151;28;20022;-78
2020/12/02 03:13:52;;;;;;;19.27;9.77;;;0.20;99.90;;;;;;5017339;28;20064;-78
2020/12/02 03:16:31;;;;;;;22.40;9.68;;;0.10;99.90;;;;;;5013035;28;20034;-78
2020/12/02 03:19:04;;;;;;;17.20;8.07;;;0.10;99.90;;;;;;5012205;28;20424;-78
2020/12/02 03:21:29;;;;;;;20.48;9.25;;;0.10;99.90;;;;;;5011454;28;20048;-78
2020/12/02 03:23:55;;;;;;;18.52;8.13;;;0.10;99.90;;;;;;5010785;28;20037;-78
2020/12/02 03:26:21;;;;;;;18.33;8.35;;;0.00;99.90;;;;;;5012821;28;20404;-78
2020/12/02 03:28:47;;;;;;;19.23;8.35;;;0.00;99.90;;;;;;5013542;28;20037;-78
2020/12/02 03:31:16;;;;;;;23.63;9.48;;;0.10;99.90;;;;;;5007854;28;20481;-78
2020/12/02 03:33:42;;;;;;;19.40;9.23;;;0.00;99.90;;;;;;5004034;28;20022;-78
2020/12/02 03:36:12;;;;;;;19.48;9.13;;;0.00;99.90;;;;;;5019124;28;20026;-78
2020/12/02 03:38:38;;;;;;;18.25;9.30;;;0.10;99.90;;;;;;4994852;28;20062;-78
2020/12/02 03:41:05;;;;;;;18.90;9.02;;;0.00;99.90;;;;;;5010658;28;20030;-78
2020/12/02 03:43:30;;;;;;;20.00;8.90;;;0.00;99.90;;;;;;4978629;28;20484;-78
2020/12/02 03:45:56;;;;;;;17.85;9.27;;;0.00;99.90;;;;;;5012758;28;20080;-78
2020/12/02 03:48:22;;;;;;;16.00;8.57;;;0.00;99.90;;;;;;5013146;28;20512;-78
2020/12/02 03:50:48;;;;;;;17.90;9.23;;;0.00;99.90;;;;;;5012164;28;20026;-78
2020/12/02 03:53:15;;;;;;;21.35;9.18;;;0.00;99.90;;;;;;5010442;28;20037;-78
2020/12/02 03:55:42;;;;;;;19.08;9.05;;;0.00;99.90;;;;;;5012267;28;20026;-78
2020/12/02 03:58:07;;;;;;;18.80;9.25;;;0.00;99.90;;;;;;5011396;28;20499;-78
2020/12/02 04:00:33;;;;;;;17.85;9.43;;;0.10;99.90;;;;;;4994613;28;20034;-78
2020/12/02 04:02:59;;;;;;;20.52;9.70;;;0.00;99.90;;;;;;5010338;28;20034;-78
2020/12/02 04:05:26;;;;;;;20.17;9.30;;;0.00;99.90;;;;;;5012315;28;20025;-78
2020/12/02 04:07:52;;;;;;;19.63;9.30;;;0.10;99.90;;;;;;5012554;28;20117;-78
2020/12/02 04:10:18;;;;;;;19.80;9.05;;;0.10;99.90;;;;;;5012356;28;20037;-78
2020/12/02 04:12:45;;;;;;;21.20;9.23;;;0.10;99.90;;;;;;5009566;28;20030;-78
2020/12/02 04:15:13;;;;;;;22.15;9.82;;;0.10;99.90;;;;;;5006741;28;20025;-78
2020/12/02 04:17:38;;;;;;;19.80;9.05;;;0.10;99.90;;;;;;5012729;28;20029;-78
2020/12/02 04:20:04;;;;;;;17.58;8.95;;;0.10;99.90;;;;;;5010915;28;20037;-78
2020/12/02 04:22:30;;;;;;;20.27;9.93;;;0.10;99.90;;;;;;5011216;28;20022;-78
2020/12/02 04:24:56;;;;;;;19.20;8.75;;;0.10;99.90;;;;;;5011783;28;20121;-78
2020/12/02 04:27:22;;;;;;;21.10;9.93;;;0.10;99.90;;;;;;4991851;28;20113;-78
2020/12/02 04:29:48;;;;;;;19.45;9.45;;;0.10;99.90;;;;;;4975266;28;20501;-78
2020/12/02 04:32:13;;;;;;;20.15;9.50;;;0.10;99.90;;;;;;4993646;28;20034;-78
2020/12/02 04:34:39;;;;;;;18.17;8.80;;;0.10;99.90;;;;;;5010816;28;20084;-78
2020/12/02 04:37:05;;;;;;;22.35;9.98;;;0.20;99.90;;;;;;5012046;28;20076;-78
2020/12/02 04:39:31;;;;;;;18.17;9.45;;;0.20;99.90;;;;;;5012527;28;20041;-78
2020/12/02 04:41:57;;;;;;;22.25;10.13;;;0.20;99.90;;;;;;4996998;28;20045;-78
2020/12/02 04:44:23;;;;;;;24.60;10.00;;;0.20;99.90;;;;;;5022021;28;20021;-78
2020/12/02 04:46:55;;;;;;;18.60;9.85;;;0.10;99.90;;;;;;5016262;28;20041;-78
2020/12/02 04:49:30;;;;;;;23.95;10.75;;;0.10;99.90;;;;;;5012586;28;20026;-78
2020/12/02 04:52:00;;;;;;;22.02;9.85;;;0.20;99.90;;;;;;5013404;28;20041;-77
2020/12/02 04:54:26;;;;;;;24.75;11.68;;;0.30;99.90;;;;;;5013541;28;20109;-78
2020/12/02 04:56:52;;;;;;;24.65;11.38;;;0.20;99.90;;;;;;5014705;28;20038;-78
2020/12/02 04:59:18;;;;;;;24.35;11.05;;;0.20;99.90;;;;;;5015340;28;20167;-78
2020/12/02 05:02:01;;;;;;;24.40;10.60;;;0.20;99.90;;;;;;5013118;28;20026;-78
2020/12/02 05:04:29;;;;;;;26.02;11.45;;;0.10;99.90;;;;;;5013373;28;20026;-78
2020/12/02 05:07:17;;;;;;;24.85;11.05;;;0.20;99.90;;;;;;5014869;28;20036;-78
2020/12/02 05:09:58;;;;;;;25.20;10.45;;;0.10;99.90;;;;;;5015328;28;20080;-78
2020/12/02 05:12:27;;;;;;;24.42;10.43;;;0.10;99.90;;;;;;5013981;28;20022;-78
2020/12/02 05:15:05;;;;;;;22.13;11.25;;;0.10;99.90;;;;;;5004493;28;20428;-78
2020/12/02 05:17:31;;;;;;;26.20;10.93;;;0.10;99.90;;;;;;5017047;28;20044;-78
2020/12/02 05:20:13;;;;;;;20.60;10.27;;;0.20;99.90;;;;;;5020089;28;20034;-78
2020/12/02 05:22:45;;;;;;;27.27;11.38;;;0.20;99.90;;;;;;5011964;28;20033;-78
2020/12/02 05:25:32;;;;;;;23.42;10.98;;;0.10;99.90;;;;;;5013411;28;20052;-78
2020/12/02 05:28:11;;;;;;;20.17;9.65;;;0.20;99.90;;;;;;5014952;28;20109;-78
2020/12/02 05:30:38;;;;;;;21.75;10.70;;;0.20;99.90;;;;;;5034035;23;20056;-75
2020/12/02 05:33:12;;;;;;;20.45;10.85;;;0.20;99.90;;;;;;5032477;28;20021;-75
2020/12/02 05:35:48;;;;;;;21.80;10.63;;;0.20;99.90;;;;;;5031793;28;20112;-76
2020/12/02 05:38:25;;;;;;;22.83;10.30;;;0.20;99.90;;;;;;5031939;28;20041;-76
2020/12/02 05:40:54;;;;;;;20.70;9.23;;;0.20;99.90;;;;;;5029230;28;20029;-76
2020/12/02 05:43:30;;;;;;;20.83;9.55;;;0.20;99.90;;;;;;5036492;28;20029;-76
2020/12/02 05:45:57;;;;;;;19.27;9.40;;;0.20;99.90;;;;;;5043640;28;20033;-77
2020/12/02 05:48:28;;;;;;;22.38;9.45;;;0.20;99.90;;;;;;5032749;28;20029;-76
2020/12/02 05:50:55;;;;;;;20.27;9.80;;;0.20;99.90;;;;;;5029630;28;20483;-77
2020/12/02 05:53:32;;;;;;;21.27;10.35;;;0.20;99.90;;;;;;5030677;28;20352;-76
2020/12/02 05:55:58;;;;;;;21.33;9.13;;;0.30;99.90;;;;;;5018386;28;20127;-76
2020/12/02 05:58:31;;;;;;;20.73;10.30;;;0.30;99.90;;;;;;5017734;28;20030;-76
2020/12/02 06:00:58;;;;;;;25.50;11.52;;;0.30;99.90;;;;;;5029530;28;20038;-76
2020/12/02 06:03:34;;;;;;;23.63;9.98;;;0.30;99.90;;;;;;5039281;28;20029;-76
2020/12/02 06:06:04;;;;;;;22.15;10.40;;;0.30;99.90;;;;;;5043170;28;20044;-76
2020/12/02 06:08:43;;;;;;;21.77;10.02;;;0.30;99.90;;;;;;5032708;28;20033;-76
2020/12/02 06:11:18;;;;;;;26.85;10.30;;;0.30;99.90;;;;;;5030920;28;20046;-76
2020/12/02 06:14:03;;;;;;;22.33;10.90;;;0.30;99.90;;;;;;5043161;28;20399;-77
2020/12/02 06:16:36;;;;;;;22.70;10.95;;;0.30;99.90;;;;;;5020701;28;20120;-76
2020/12/02 06:19:31;;;;;;;25.92;10.85;;;0.40;99.90;;;;;;5032380;28;20033;-76
2020/12/02 06:22:04;;;;;;;18.65;9.57;;;0.30;99.90;;;;;;5024457;28;20053;-77
2020/12/02 06:24:35;;;;;;;23.55;11.07;;;0.30;99.90;;;;;;5036831;28;20048;-76
2020/12/02 06:27:22;;;;;;;22.25;10.68;;;0.30;99.90;;;;;;5032273;28;20486;-76
2020/12/02 06:30:16;;;;;;;21.67;10.30;;;0.30;99.90;;;;;;5022953;28;20044;-76
2020/12/02 06:32:57;;;;;;;25.58;10.43;;;0.30;99.90;;;;;;5032661;28;20041;-76
2020/12/02 06:35:23;;;;;;;23.40;10.23;;;0.30;99.90;;;;;;5036662;28;20033;-76
2020/12/02 06:38:12;;;;;;;26.10;11.23;;;0.30;99.90;;;;;;5032167;28;20040;-76
2020/12/02 06:41:04;;;;;;;24.10;11.13;;;0.30;99.90;;;;;;5030317;28;20561;-76
2020/12/02 06:43:37;;;;;;;23.08;10.38;;;0.30;99.90;;;;;;5038898;28;20059;-77
2020/12/02 06:46:11;;;;;;;26.73;10.98;;;0.30;99.90;;;;;;5041166;28;20388;-76
2020/12/02 06:48:39;;;;;;;28.23;12.20;;;0.30;99.90;;;;;;5030555;28;20051;-76
2020/12/02 06:51:16;;;;;;;25.80;11.77;;;0.40;99.90;;;;;;5030620;28;20466;-75
2020/12/02 06:53:41;;;;;;;26.98;11.70;;;0.40;99.90;;;;;;5044667;28;20029;-76
2020/12/02 06:56:15;;;;;;;28.83;13.98;;;0.40;99.90;;;;;;5030655;28;20034;-76
2020/12/02 06:58:41;;;;;;;28.77;13.02;;;0.30;99.90;;;;;;5031653;28;20037;-76
2020/12/02 07:01:06;;;;;;;24.23;11.50;;;0.20;99.90;;;;;;5027463;28;20060;-75
2020/12/02 07:03:42;;;;;;;25.42;11.25;;;0.20;99.90;;;;;;5039673;28;20158;-76
2020/12/02 07:06:25;;;;;;;21.85;10.45;;;0.20;99.90;;;;;;5041204;28;20036;-76
2020/12/02 07:09:07;;;;;;;24.92;9.95;;;0.10;99.90;;;;;;5031703;28;20040;-76
2020/12/02 07:11:33;;;;;;;21.98;11.02;;;0.10;99.90;;;;;;5032524;28;20029;-77
2020/12/02 07:14:18;;;;;;;21.65;10.75;;;0.10;99.90;;;;;;5042471;28;20029;-76
2020/12/02 07:16:44;;;;;;;22.38;10.27;;;0.20;99.90;;;;;;5046922;28;20479;-75
2020/12/02 07:19:13;;;;;;;20.55;10.00;;;0.20;99.90;;;;;;5030609;28;20124;-73
2020/12/02 07:21:47;;;;;;;24.88;10.73;;;0.20;99.90;;;;;;5028635;28;20061;-77
2020/12/02 07:24:16;;;;;;;24.58;10.75;;;0.20;99.90;;;;;;5044056;28;20025;-75
2020/12/02 07:26:43;;;;;;;24.30;11.15;;;0.20;99.90;;;;;;5032444;28;20088;-74
2020/12/02 07:29:29;;;;;;;25.05;11.23;;;0.20;99.90;;;;;;5021228;28;20029;-75
2020/12/02 07:32:00;;;;;;;;;;;0.20;99.90;;;;;;5031209;28;20104;-76
2020/12/02 07:34:27;;;;;;;27.30;10.80;;;0.30;99.90;;;;;;5031183;28;20043;-76
2020/12/02 07:36:59;;;;;;;27.48;12.18;;;0.30;99.90;;;;;;5017706;28;20380;-77
2020/12/02 07:39:26;;;;;;;25.45;10.98;;;0.20;99.90;;;;;;5028222;28;20033;-76
2020/12/02 07:42:06;;;;;;;20.60;9.63;;;0.30;99.90;;;;;;5024148;28;20360;-76
2020/12/02 07:44:38;;;;;;;27.35;10.68;;;0.30;99.90;;;;;;5041251;28;20029;-76
2020/12/02 07:47:07;;;;;;;25.52;10.23;;;0.30;99.90;;;;;;5024954;28;20034;-77
2020/12/02 07:49:36;;;;;;;28.40;11.07;;;0.30;99.90;;;;;;5013503;28;20111;-77
2020/12/02 07:52:35;;;;;;;26.75;10.98;;;0.20;99.90;;;;;;5028187;28;20022;-77
2020/12/02 07:55:01;;;;;;;26.20;10.82;;;0.30;99.90;;;;;;5013244;28;20096;-77
2020/12/02 07:57:28;;;;;;;25.50;11.50;;;0.20;99.90;;;;;;5022106;28;20048;-77
2020/12/02 08:00:12;;;;;;;23.30;10.77;;;0.30;99.90;;;;;;5030813;28;20033;-77
2020/12/02 08:02:42;;;;;;;29.77;12.07;;;0.30;99.90;;;;;;5031954;28;20021;-78
2020/12/02 08:05:40;;;;;;;24.40;10.93;;;0.30;99.90;;;;;;5046493;28;20118;-77
2020/12/02 08:08:06;;;;;;;27.20;11.18;;;0.30;99.90;;;;;;5031138;28;20032;-77
2020/12/02 08:10:34;;;;;;;27.48;11.40;;;0.30;99.90;;;;;;5029375;28;20682;-78
2020/12/02 08:13:14;;;;;;;28.15;11.95;;;0.30;99.90;;;;;;5035866;28;20467;-77
2020/12/02 08:15:57;;;;;;;30.83;12.27;;;0.40;99.90;;;;;;5014859;28;20065;-77
2020/12/02 08:18:25;;;;;;;32.30;11.73;;;0.40;99.90;;;;;;5036856;28;20480;-77
2020/12/02 08:20:52;;;;;;;30.48;12.35;;;0.50;99.90;;;;;;5022129;28;20041;-78
2020/12/02 08:23:23;;;;;;;28.25;11.82;;;0.50;99.90;;;;;;5035722;28;20033;-78
2020/12/02 08:26:09;;;;;;;29.40;12.02;;;0.50;99.90;;;;;;5047243;28;20029;-77
2020/12/02 08:28:38;;;;;;;25.45;10.48;;;0.40;99.90;;;;;;5034349;28;20036;-77
2020/12/02 08:31:15;;;;;;;35.38;12.52;;;0.30;99.90;;;;;;5033424;28;20100;-77
2020/12/02 08:33:41;;;;;;;29.45;11.55;;;0.10;99.90;;;;;;5031360;28;20391;-78
2020/12/02 08:36:09;;;;;;;30.35;11.50;;;0.00;99.90;;;;;;5021879;28;20033;-76
2020/12/02 08:38:40;;;;;;;29.73;12.20;;;0.00;99.90;;;;;;5032102;28;20029;-77
2020/12/02 08:41:17;;;;;;;31.73;11.70;;;-0.10;99.90;;;;;;5030308;28;20041;-77
2020/12/02 08:43:47;;;;;;;33.13;11.82;;;-0.20;99.90;;;;;;5044523;28;20063;-76
2020/12/02 08:46:22;;;;;;;33.42;12.45;;;-0.30;99.90;;;;;;5043963;28;20037;-77
2020/12/02 08:49:02;;;;;;;26.00;10.60;;;-0.30;99.90;;;;;;5034043;28;20033;-76
2020/12/02 08:51:28;;;;;;;32.33;10.85;;;-0.40;99.90;;;;;;5031549;28;20048;-77
2020/12/02 08:53:55;;;;;;;28.77;11.35;;;-0.50;99.90;;;;;;5044909;28;20052;-77
2020/12/02 08:56:30;;;;;;;25.65;11.65;;;-0.50;99.90;;;;;;5032288;28;20055;-76
2020/12/02 08:58:56;;;;;;;29.20;11.07;;;-0.60;99.90;;;;;;5031694;28;20460;-77
2020/12/02 09:01:22;;;;;;;28.63;11.60;;;-0.60;99.90;;;;;;5030171;28;20095;-77
2020/12/02 09:03:47;;;;;;;25.15;11.00;;;-0.70;99.90;;;;;;5047914;28;20033;-75
2020/12/02 09:06:16;;;;;;;30.92;12.85;;;-0.70;99.90;;;;;;5032219;28;20517;-77
2020/12/02 09:08:43;;;;;;;23.95;10.38;;;-0.70;99.90;;;;;;5031628;28;20021;-75
2020/12/02 09:11:09;;;;;;;23.33;9.38;;;-0.70;99.90;;;;;;5030667;28;20079;-74
2020/12/02 09:13:35;;;;;;;29.10;10.27;;;-0.70;99.90;;;;;;5032095;28;20021;-74
2020/12/02 09:16:00;;;;;;;23.52;9.68;;;-0.80;99.90;;;;;;5032793;28;20463;-74
2020/12/02 09:18:26;;;;;;;24.92;9.48;;;-0.80;99.90;;;;;;5031545;28;20084;-77
2020/12/02 09:20:52;;;;;;;23.05;10.07;;;-0.80;99.90;;;;;;5030536;28;20069;-77
2020/12/02 09:23:17;;;;;;;27.48;11.45;;;-0.80;99.90;;;;;;5048756;28;20025;-77
2020/12/02 09:25:43;;;;;;;25.35;10.25;;;-0.80;99.90;;;;;;5038701;28;20036;-77
2020/12/02 09:28:09;;;;;;;23.35;9.30;;;-0.80;99.90;;;;;;5033648;28;20026;-77
2020/12/02 09:30:35;;;;;;;30.27;11.00;;;-0.90;99.90;;;;;;5031301;28;20521;-76
2020/12/02 09:33:01;;;;;;;26.55;11.13;;;-0.90;99.90;;;;;;5042086;28;20082;-76
2020/12/02 09:35:27;;;;;;;29.98;10.32;;;-0.90;99.90;;;;;;5036949;28;20033;-76
2020/12/02 09:37:53;;;;;;;29.30;10.75;;;-0.90;99.90;;;;;;5032875;28;20594;-77
2020/12/02 09:40:19;;;;;;;22.58;9.43;;;-0.90;99.90;;;;;;5033317;28;20120;-76
2020/12/02 09:43:21;;;;;;;25.85;9.45;;;-0.90;99.90;;;;;;5034851;28;20082;-77
2020/12/02 09:45:56;;;;;;;24.00;10.02;;;-0.80;99.90;;;;;;5045971;28;20108;-77
2020/12/02 09:48:26;;;;;;;29.37;11.10;;;-0.80;99.90;;;;;;5033313;28;20033;-77
2020/12/02 09:50:52;;;;;;;26.35;9.15;;;-0.80;99.90;;;;;;5028640;28;20286;-77
2020/12/02 09:53:21;;;;;;;26.30;10.35;;;-0.70;99.90;;;;;;5033831;28;20030;-76
2020/12/02 09:55:48;;;;;;;30.60;11.75;;;-0.70;99.90;;;;;;5031958;28;20141;-76
2020/12/02 09:58:17;;;;;;;25.33;10.95;;;-0.60;99.90;;;;;;5022638;28;20034;-77
2020/12/02 10:00:43;;;;;;;30.95;11.25;;;-0.60;99.90;;;;;;5030596;28;20023;-77
2020/12/02 10:03:39;;;;;;;30.15;12.20;;;-0.60;99.90;;;;;;5029826;28;20048;-77
2020/12/02 10:06:35;;;;;;;27.65;10.50;;;-0.60;99.90;;;;;;5022835;28;20403;-76
2020/12/02 10:09:23;;;;;;;26.15;11.13;;;-0.60;99.90;;;;;;5032460;28;20112;-77
2020/12/02 10:12:03;;;;;;;25.92;9.85;;;-0.60;99.90;;;;;;5028261;28;20487;-76
2020/12/02 10:14:57;;;;;;;22.02;9.77;;;-0.60;99.90;;;;;;5031411;28;20439;-76
2020/12/02 10:17:55;;;;;;;27.50;10.50;;;-0.60;99.90;;;;;;5020172;28;20038;-77
2020/12/02 10:20:29;;;;;;;25.40;10.25;;;-0.60;99.90;;;;;;5012529;28;20033;-77
2020/12/02 10:23:04;;;;;;;28.30;10.45;;;-0.50;99.90;;;;;;5034336;28;20108;-76
2020/12/02 10:26:11;;;;;;;30.35;10.95;;;-0.60;99.90;;;;;;5026401;28;20061;-76
2020/12/02 10:28:59;;;;;;;24.33;10.48;;;-0.50;99.90;;;;;;5024194;28;20049;-76
2020/12/02 10:31:46;;;;;;;24.45;10.32;;;-0.40;99.90;;;;;;5032558;28;20035;-76
2020/12/02 10:34:26;;;;;;;27.70;10.15;;;-0.40;99.90;;;;;;5029119;28;20083;-77
2020/12/02 10:37:02;;;;;;;26.73;10.30;;;-0.40;99.90;;;;;;5032211;28;20033;-77
2020/12/02 10:39:32;;;;;;;25.13;9.85;;;-0.40;99.90;;;;;;5031857;28;20033;-77
2020/12/02 10:42:07;;;;;;;28.17;10.82;;;-0.50;99.90;;;;;;5028797;28;20037;-76
2020/12/02 10:44:58;;;;;;;29.10;11.15;;;-0.40;99.90;;;;;;5048156;28;20543;-76
2020/12/02 10:47:32;;;;;;;27.05;11.05;;;-0.30;99.90;;;;;;5011410;28;20042;-77
2020/12/02 10:49:59;;;;;;;26.20;10.35;;;-0.40;99.90;;;;;;5016547;28;20152;-77
2020/12/02 10:52:25;;;;;;;28.17;11.82;;;-0.40;99.90;;;;;;5034349;28;20074;-76
2020/12/02 10:54:51;;;;;;;31.13;12.00;;;-0.30;99.90;;;;;;5039765;28;20148;-76
2020/12/02 10:57:22;;;;;;;34.40;13.23;;;-0.40;99.90;;;;;;5031483;28;20082;-76
2020/12/02 10:59:54;;;;;;;25.80;10.82;;;-0.40;99.90;;;;;;5031712;28;20033;-76
2020/12/02 11:02:24;;;;;;;29.88;11.55;;;-0.40;99.90;;;;;;5030253;28;20368;-78
2020/12/02 11:04:49;;;;;;;24.10;10.30;;;-0.40;99.90;;;;;;5047545;28;20037;-77
2020/12/02 11:07:33;;;;;;;25.55;10.75;;;-0.40;99.90;;;;;;5031735;28;20133;-77
2020/12/02 11:10:06;;;;;;;23.58;11.70;;;-0.40;99.90;;;;;;5029953;28;20014;-78
2020/12/02 11:12:47;;;;;;;25.35;11.55;;;-0.40;99.90;;;;;;5035784;28;20402;-77
2020/12/02 11:15:34;;;;;;;26.55;12.13;;;-0.40;99.90;;;;;;5024101;28;20029;-77
2020/12/02 11:18:15;;;;;;;25.48;10.82;;;-0.40;99.90;;;;;;5033464;28;20125;-76
2020/12/02 11:21:00;;;;;;;22.88;10.98;;;-0.40;99.90;;;;;;5022404;28;20076;-75
2020/12/02 11:24:00;;;;;;;32.20;14.32;;;-0.30;99.90;;;;;;5027225;28;20033;-76
2020/12/02 11:26:32;;;;;;;25.85;12.68;;;-0.40;99.90;;;;;;5022068;28;20039;-76
2020/12/02 11:29:00;;;;;;;35.28;17.35;;;-0.40;99.90;;;;;;5026615;28;20081;-77
2020/12/02 11:32:11;;;;;;;34.92;15.48;;;-0.30;99.90;;;;;;5043388;22;20060;-82
2020/12/02 11:34:49;;;;;;;32.70;13.68;;;-0.20;99.90;;;;;;4954722;28;20117;-83
2020/12/02 11:37:38;;;;;;;32.60;13.35;;;-0.20;99.90;;;;;;5009649;28;20045;-84
2020/12/02 11:40:28;;;;;;;28.77;11.73;;;-0.20;99.90;;;;;;5024340;28;20100;-83
2020/12/02 11:43:25;;;;;;;25.92;11.27;;;-0.20;99.90;;;;;;5016879;28;20052;-84
2020/12/02 11:45:52;;;;;;;24.35;11.75;;;-0.20;99.90;;;;;;5002299;28;20116;-83
2020/12/02 11:48:34;;;;;;;22.33;11.38;;;-0.20;99.90;;;;;;5010428;28;20636;-84
2020/12/02 11:51:11;;;;;;;25.50;11.95;;;-0.20;99.90;;;;;;5000708;28;20079;-82
2020/12/02 11:53:57;;;;;;;23.25;9.88;;;-0.10;99.90;;;;;;5023104;28;20561;-83
2020/12/02 11:56:35;;;;;;;27.15;11.55;;;-0.10;99.90;;;;;;5012010;28;20065;-82
2020/12/02 11:59:22;;;;;;;27.55;11.65;;;-0.10;99.90;;;;;;5008256;28;20056;-82
2020/12/02 12:01:52;;;;;;;23.20;11.15;;;-0.10;99.90;;;;;;5027489;28;20124;-80
2020/12/02 12:04:32;;;;;;;22.98;9.77;;;-0.20;99.90;;;;;;5025513;28;20036;-80
2020/12/02 12:07:11;;;;;;;22.83;10.52;;;-0.20;99.90;;;;;;5012443;28;20033;-81
2020/12/02 12:09:47;;;;;;;24.40;11.40;;;-0.30;99.90;;;;;;5014905;28;20026;-80
2020/12/02 12:12:22;;;;;;;26.38;11.05;;;-0.20;99.90;;;;;;5011150;28;20021;-80
2020/12/02 12:14:54;;;;;;;23.08;11.15;;;-0.30;99.90;;;;;;5012718;28;20528;-81
2020/12/02 12:17:28;;;;;;;23.15;10.95;;;-0.30;99.90;;;;;;5011350;28;20040;-82
2020/12/02 12:20:16;;;;;;;23.98;10.80;;;-0.20;99.90;;;;;;5006876;28;20045;-83
2020/12/02 12:22:48;;;;;;;21.42;9.98;;;-0.30;99.90;;;;;;5011573;28;20034;-84
2020/12/02 12:25:19;;;;;;;27.48;11.27;;;-0.30;99.90;;;;;;5006656;28;20084;-83
2020/12/02 12:27:48;;;;;;;26.10;10.93;;;-0.30;99.90;;;;;;5016765;28;20041;-81
2020/12/02 12:30:17;;;;;;;25.95;10.60;;;-0.20;99.90;;;;;;5030844;28;20030;-82
2020/12/02 12:33:04;;;;;;;24.98;10.18;;;-0.30;99.90;;;;;;5009801;28;20072;-82
2020/12/02 12:35:40;;;;;;;22.33;10.18;;;-0.20;99.90;;;;;;5016093;28;20044;-82
2020/12/02 12:38:25;;;;;;;21.55;9.38;;;-0.30;99.90;;;;;;4978748;28;20026;-81
2020/12/02 12:41:12;;;;;;;23.42;10.70;;;-0.30;99.90;;;;;;5016883;28;20075;-81
2020/12/02 12:44:02;;;;;;;25.60;10.82;;;-0.40;99.90;;;;;;5020039;28;20041;-82
2020/12/02 12:46:34;;;;;;;21.50;9.77;;;-0.40;99.90;;;;;;5029588;28;20041;-82
2020/12/02 12:49:02;;;;;;;21.10;9.93;;;-0.40;99.90;;;;;;5018219;28;20472;-83
2020/12/02 12:51:31;;;;;;;21.67;9.57;;;-0.40;99.90;;;;;;5031077;28;20034;-81
2020/12/02 12:54:03;;;;;;;22.83;10.02;;;-0.40;99.90;;;;;;5032999;28;20025;-82
2020/12/02 12:56:30;;;;;;;22.75;9.73;;;-0.40;99.90;;;;;;5014124;28;20216;-83
2020/12/02 12:58:56;;;;;;;18.98;9.07;;;-0.40;99.90;;;;;;4997211;28;20069;-82
2020/12/02 13:01:22;;;;;;;24.92;10.18;;;-0.40;99.90;;;;;;5002299;28;20495;-82
2020/12/02 13:03:50;;;;;;;18.73;9.10;;;-0.40;99.90;;;;;;4987183;28;20096;-81
2020/12/02 13:06:50;;;;;;;20.65;9.23;;;-0.40;99.90;;;;;;5020288;28;20034;-82
2020/12/02 13:09:21;;;;;;;20.85;10.07;;;-0.50;99.90;;;;;;5016627;28;20033;-81